Time;durP1;ratioP1;P1;durP2;ratioP2;P2;SDS_P1;SDS_P2;PMS_P1;PMS_P2;Temp;Humidity;BMP_temperature;BMP_pressure;BME280_temperature;BME280_humidity;BME280_pressure;Samples;Min_cycle;Max_cycle;Signal;HPM_P1;HPM_P2
2023/11/30 00:00:23;;;;;;;;;;;;;;;29.36;73.99;101015.28;5043306;28;67028;-33
2023/11/30 00:02:53;;;;;;;;;;;;;;;29.39;74.73;101014.84;5040886;28;69909;-34
2023/11/30 00:05:22;;;;;;;;;;;;;;;29.44;75.06;101022.31;5045480;28;66818;-40
2023/11/30 00:07:52;;;;;;;;;;;;;;;29.48;75.32;101015.47;5043943;28;71016;-34
2023/11/30 00:10:22;;;;;;;;;;;;;;;29.48;76.16;101012.78;5043990;28;66091;-34
2023/11/30 00:12:51;;;;;;;;;;;;;;;29.52;75.93;101024.81;5041640;28;70197;-34
2023/11/30 00:15:21;;;;;;;;;;;;;;;29.57;76.73;101026.91;5041769;28;67000;-34
2023/11/30 00:17:51;;;;;;;;;;;;;;;29.60;76.59;101021.09;5042463;28;69191;-34
2023/11/30 00:20:20;;;;;;;;;;;;;;;29.62;76.67;101013.59;5044048;28;66783;-33
2023/11/30 00:22:50;;;;;;;;;;;;;;;29.65;77.24;101024.03;5042893;28;70376;-35
2023/11/30 00:25:20;;;;;;;;;;;;;;;29.66;77.20;101019.44;5041515;28;66744;-34
2023/11/30 00:27:49;;;;;;;;;;;;;;;29.67;76.94;101027.38;5041145;28;69749;-33
2023/11/30 00:30:18;;;;;;;;;;;;;;;29.69;76.91;101027.13;5039721;28;66057;-33
2023/11/30 00:32:48;;;;;;;;;;;;;;;29.69;76.73;101022.56;5044082;28;69938;-34
2023/11/30 00:35:18;;;;;;;;;;;;;;;29.70;75.39;101032.34;5043165;28;65994;-34
2023/11/30 00:37:47;;;;;;;;;;;;;;;29.70;73.52;101037.75;5032950;28;69978;-34
2023/11/30 00:40:20;;;;;;;;;;;;;;;29.73;72.06;101037.34;5038837;28;66724;-34
2023/11/30 00:42:49;;;;;;;;;;;;;;;29.77;71.18;101041.28;5049078;28;70668;-34
2023/11/30 00:45:19;;;;;;;;;;;;;;;29.77;70.62;101043.16;5043450;28;66958;-33
2023/11/30 00:47:48;;;;;;;;;;;;;;;29.81;70.12;101053.34;5042557;28;70493;-33
2023/11/30 00:50:18;;;;;;;;;;;;;;;29.83;69.11;101051.25;5023851;28;66446;-32
2023/11/30 00:52:47;;;;;;;;;;;;;;;29.86;68.61;101057.28;5040653;28;69468;-34
2023/11/30 00:55:17;;;;;;;;;;;;;;;29.88;68.41;101064.16;5023588;28;66505;-34
2023/11/30 00:57:46;;;;;;;;;;;;;;;29.91;67.96;101073.72;5022830;28;69031;-34
2023/11/30 01:00:16;;;;;;;;;;;;;;;29.92;67.88;101061.84;5039261;28;66071;-35
2023/11/30 01:02:46;;;;;;;;;;;;;;;29.94;67.63;101059.78;5023730;28;70501;-33
2023/11/30 01:05:15;;;;;;;;;;;;;;;29.95;67.77;101066.84;5023675;28;66639;-34
2023/11/30 01:07:45;;;;;;;;;;;;;;;29.96;67.75;101071.22;5038553;28;70865;-33
2023/11/30 01:10:14;;;;;;;;;;;;;;;29.96;67.34;101060.41;5040489;28;66993;-33
2023/11/30 01:12:44;;;;;;;;;;;;;;;29.99;67.48;101066.22;5041183;28;69803;-33
2023/11/30 01:15:14;;;;;;;;;;;;;;;30.00;67.19;101059.75;5039550;28;66990;-33
2023/11/30 01:17:44;;;;;;;;;;;;;;;30.01;67.20;101064.16;5040334;28;70773;-33
2023/11/30 01:20:13;;;;;;;;;;;;;;;30.02;66.94;101067.69;5040092;28;65374;-33
2023/11/30 01:22:43;;;;;;;;;;;;;;;30.03;67.10;101067.47;5037617;28;70390;-33
2023/11/30 01:25:13;;;;;;;;;;;;;;;30.05;66.79;101072.66;5040784;28;66121;-33
2023/11/30 01:27:51;;;;;;;;;;;;;;;30.06;66.93;101068.91;5023415;28;70482;-34
2023/11/30 01:30:21;;;;;;;;;;;;;;;30.09;66.35;101073.06;5040330;28;65429;-33
2023/11/30 01:32:51;;;;;;;;;;;;;;;30.10;66.73;101072.03;5040308;28;70320;-32
2023/11/30 01:35:21;;;;;;;;;;;;;;;30.11;66.20;101071.00;5038451;28;66060;-33
2023/11/30 01:38:09;;;;;;;;;;;;;;;30.12;66.67;101084.31;5030292;28;70753;-32
2023/11/30 01:40:38;;;;;;;;;;;;;;;30.13;66.55;101077.84;5037615;28;66013;-33
2023/11/30 01:43:08;;;;;;;;;;;;;;;30.14;66.34;101073.28;5039254;28;70362;-33
2023/11/30 01:45:37;;;;;;;;;;;;;;;30.16;66.02;101074.72;5039716;28;66490;-32
2023/11/30 01:48:07;;;;;;;;;;;;;;;30.19;66.14;101081.59;5018839;28;70413;-32
2023/11/30 01:50:37;;;;;;;;;;;;;;;30.19;65.76;101082.41;5040052;28;66757;-33
2023/11/30 01:53:07;;;;;;;;;;;;;;;30.21;66.17;101082.22;5038236;28;70177;-32
2023/11/30 01:55:37;;;;;;;;;;;;;;;30.22;65.70;101090.16;5020124;28;66065;-33
2023/11/30 01:58:08;;;;;;;;;;;;;;;30.24;66.21;101088.06;5035339;28;70716;-33
2023/11/30 02:00:37;;;;;;;;;;;;;;;30.26;66.18;101091.41;5021792;28;66764;-33
2023/11/30 02:03:07;;;;;;;;;;;;;;;30.27;66.07;101082.22;5051454;28;69975;-33
2023/11/30 02:05:37;;;;;;;;;;;;;;;30.28;66.12;101089.31;5038243;28;67070;-33
2023/11/30 02:08:07;;;;;;;;;;;;;;;30.31;66.08;101088.03;5037539;28;70346;-33
2023/11/30 02:10:36;;;;;;;;;;;;;;;30.33;65.69;101082.44;5038796;28;66588;-32
2023/11/30 02:13:06;;;;;;;;;;;;;;;30.34;65.87;101082.22;5018620;28;70526;-32
2023/11/30 02:15:35;;;;;;;;;;;;;;;30.37;65.87;101097.19;5020942;28;66958;-33
2023/11/30 02:18:05;;;;;;;;;;;;;;;30.38;65.88;101098.88;5039113;28;70025;-35
2023/11/30 02:20:34;;;;;;;;;;;;;;;30.40;65.36;101102.22;5038510;28;66122;-32
2023/11/30 02:23:04;;;;;;;;;;;;;;;30.42;65.53;101108.22;5037971;28;70064;-34
2023/11/30 02:25:34;;;;;;;;;;;;;;;30.44;65.26;101098.00;5038056;28;65450;-34
2023/11/30 02:28:04;;;;;;;;;;;;;;;30.44;65.40;101089.91;5038878;28;71317;-33
2023/11/30 02:30:34;;;;;;;;;;;;;;;30.47;65.33;101086.75;5020838;28;65460;-33
2023/11/30 02:33:04;;;;;;;;;;;;;;;30.49;65.28;101106.34;5038648;28;70017;-33
2023/11/30 02:35:34;;;;;;;;;;;;;;;30.51;65.57;101093.44;5028012;28;66939;-35
2023/11/30 02:38:04;;;;;;;;;;;;;;;30.54;65.28;101093.00;5037901;28;70683;-34
2023/11/30 02:40:33;;;;;;;;;;;;;;;30.56;65.20;101090.88;5019527;28;67349;-33
2023/11/30 02:43:03;;;;;;;;;;;;;;;30.58;65.22;101094.22;5038738;28;69940;-32
2023/11/30 02:45:32;;;;;;;;;;;;;;;30.60;65.12;101094.84;5039014;28;66135;-32
2023/11/30 02:48:02;;;;;;;;;;;;;;;30.63;65.10;101097.13;5038250;28;70296;-33
2023/11/30 02:50:32;;;;;;;;;;;;;;;30.65;65.38;101099.63;5038940;28;67356;-32
2023/11/30 02:53:01;;;;;;;;;;;;;;;30.66;65.10;101102.13;5038436;28;70215;-33
2023/11/30 02:55:31;;;;;;;;;;;;;;;30.56;65.06;101069.22;5038522;28;66361;-33
2023/11/30 02:58:00;;;;;;;;;;;;;;;30.71;64.93;101094.19;5021026;28;69710;-33
2023/11/30 03:00:30;;;;;;;;;;;;;;;30.73;65.26;101092.09;5038460;28;66781;-33
2023/11/30 03:02:59;;;;;;;;;;;;;;;30.76;64.62;101090.84;5030846;28;70761;-33
2023/11/30 03:05:31;;;;;;;;;;;;;;;30.77;64.93;101097.91;5038525;28;65932;-33
2023/11/30 03:08:00;;;;;;;;;;;;;;;30.80;64.56;101091.28;5038106;28;70268;-33
2023/11/30 03:10:29;;;;;;;;;;;;;;;30.82;64.87;101079.19;5019471;28;67483;-33
2023/11/30 03:12:59;;;;;;;;;;;;;;;30.85;64.48;101077.91;5019355;28;70993;-33
2023/11/30 03:15:30;;;;;;;;;;;;;;;30.87;64.67;101089.34;5039437;28;66079;-33
2023/11/30 03:18:00;;;;;;;;;;;;;;;30.91;64.59;101093.31;5038637;28;68743;-34
2023/11/30 03:20:29;;;;;;;;;;;;;;;30.93;64.49;101091.22;5038725;28;66032;-33
2023/11/30 03:22:59;;;;;;;;;;;;;;;30.96;64.51;101095.38;5038183;28;70507;-34
2023/11/30 03:25:29;;;;;;;;;;;;;;;30.95;64.13;101075.56;5037305;28;67327;-33
2023/11/30 03:27:59;;;;;;;;;;;;;;;31.00;64.65;101078.44;5019665;28;70307;-34
2023/11/30 03:30:29;;;;;;;;;;;;;;;31.03;64.28;101075.31;5022250;28;65500;-34
2023/11/30 03:32:59;;;;;;;;;;;;;;;31.04;64.14;101071.56;5040081;28;70951;-32
2023/11/30 03:35:28;;;;;;;;;;;;;;;31.07;64.08;101063.00;5037201;28;67194;-32
2023/11/30 03:37:58;;;;;;;;;;;;;;;31.10;64.32;101076.13;5022058;28;70122;-33
2023/11/30 03:40:28;;;;;;;;;;;;;;;31.12;64.02;101068.59;5041249;28;66108;-33
2023/11/30 03:42:57;;;;;;;;;;;;;;;31.14;64.01;101058.34;5040607;28;70138;-34
2023/11/30 03:45:27;;;;;;;;;;;;;;;31.16;64.22;101053.56;5041437;28;66789;-33
2023/11/30 03:47:58;;;;;;;;;;;;;;;31.20;64.03;101050.41;5040995;28;70535;-33
2023/11/30 03:50:27;;;;;;;;;;;;;;;31.22;63.99;101051.84;5056073;28;66158;-32
2023/11/30 03:52:57;;;;;;;;;;;;;;;31.25;63.89;101050.59;5052427;28;69897;-32
2023/11/30 03:55:26;;;;;;;;;;;;;;;31.27;63.78;101051.22;5040729;28;66760;-33
2023/11/30 03:57:56;;;;;;;;;;;;;;;31.29;64.00;101035.56;5026800;28;70384;-35
2023/11/30 04:00:25;;;;;;;;;;;;;;;31.31;63.84;101028.03;5039529;28;66279;-34
2023/11/30 04:02:55;;;;;;;;;;;;;;;31.33;63.83;101025.94;5023461;28;69166;-35
2023/11/30 04:05:25;;;;;;;;;;;;;;;31.35;63.43;101013.81;5022476;28;67655;-34
2023/11/30 04:07:55;;;;;;;;;;;;;;;31.38;63.66;101009.88;5041087;28;70051;-37
2023/11/30 04:10:24;;;;;;;;;;;;;;;31.38;63.70;100996.31;5041703;28;66419;-33
2023/11/30 04:12:54;;;;;;;;;;;;;;;31.42;63.55;101002.94;5046064;28;70470;-35
2023/11/30 04:15:24;;;;;;;;;;;;;;;31.43;63.51;100993.78;5054610;28;66237;-34
2023/11/30 04:17:54;;;;;;;;;;;;;;;31.45;63.48;100994.38;5054914;28;70627;-33
2023/11/30 04:20:24;;;;;;;;;;;;;;;31.47;63.58;100989.56;5037725;28;66893;-34
2023/11/30 04:22:54;;;;;;;;;;;;;;;31.49;63.58;100987.47;5021340;28;69846;-33
2023/11/30 04:25:24;;;;;;;;;;;;;;;31.52;63.41;100991.63;5015700;28;67039;-33
2023/11/30 04:27:54;;;;;;;;;;;;;;;31.55;63.31;100989.28;5015806;28;69981;-32
2023/11/30 04:30:25;;;;;;;;;;;;;;;31.57;63.36;100989.91;5040701;28;66395;-32
2023/11/30 04:32:54;;;;;;;;;;;;;;;31.58;63.33;100983.41;5041229;28;70234;-33
2023/11/30 04:35:26;;;;;;;;;;;;;;;31.61;62.82;100977.53;5023514;28;66089;-33
2023/11/30 04:37:56;;;;;;;;;;;;;;;31.64;63.06;100967.31;5020468;28;70682;-34
2023/11/30 04:40:25;;;;;;;;;;;;;;;31.67;63.16;100964.13;5020135;28;65855;-34
2023/11/30 04:42:55;;;;;;;;;;;;;;;31.69;63.19;100953.91;5053642;28;70547;-33
2023/11/30 04:45:24;;;;;;;;;;;;;;;31.72;62.93;100956.16;5055755;28;66331;-34
2023/11/30 04:47:55;;;;;;;;;;;;;;;31.59;62.52;100928.16;5021535;28;69573;-34
2023/11/30 04:50:24;;;;;;;;;;;;;;;31.75;62.92;100947.59;5020259;28;66282;-33
2023/11/30 04:52:54;;;;;;;;;;;;;;;31.76;62.44;100933.81;5039598;28;69753;-34
2023/11/30 04:55:24;;;;;;;;;;;;;;;31.79;62.65;100921.69;5023011;28;65443;-35
2023/11/30 04:57:53;;;;;;;;;;;;;;;31.81;62.46;100924.97;5028098;28;70494;-33
2023/11/30 05:00:23;;;;;;;;;;;;;;;31.84;62.32;100916.38;5040015;28;66738;-33
2023/11/30 05:02:54;;;;;;;;;;;;;;;31.87;62.40;100917.81;5054843;28;70241;-32
2023/11/30 05:05:25;;;;;;;;;;;;;;;31.89;62.35;100916.53;5041735;28;65310;-33
2023/11/30 05:07:55;;;;;;;;;;;;;;;31.91;61.97;100902.75;5038787;28;70608;-32
2023/11/30 05:10:24;;;;;;;;;;;;;;;31.93;61.88;100896.09;5039841;28;66053;-32
2023/11/30 05:12:53;;;;;;;;;;;;;;;31.95;62.11;100903.97;5042344;28;70325;-33
2023/11/30 05:15:23;;;;;;;;;;;;;;;31.98;62.10;100898.09;5041804;28;66677;-33
2023/11/30 05:17:53;;;;;;;;;;;;;;;32.00;61.76;100883.25;5039459;28;69276;-33
2023/11/30 05:20:23;;;;;;;;;;;;;;;32.03;61.89;100871.94;5040956;28;66763;-34
2023/11/30 05:22:52;;;;;;;;;;;;;;;32.04;61.90;100870.91;5030178;28;69934;-33
2023/11/30 05:25:22;;;;;;;;;;;;;;;32.05;61.75;100872.56;5039570;28;66570;-33
2023/11/30 05:27:51;;;;;;;;;;;;;;;32.09;61.88;100855.81;5041094;28;70085;-33
2023/11/30 05:30:22;;;;;;;;;;;;;;;32.11;61.52;100857.22;5037717;28;66083;-34
2023/11/30 05:32:52;;;;;;;;;;;;;;;32.13;61.44;100846.16;5038340;28;69853;-34
2023/11/30 05:35:24;;;;;;;;;;;;;;;32.15;61.48;100838.59;5040452;28;66324;-36
2023/11/30 05:37:54;;;;;;;;;;;;;;;32.17;61.34;100833.78;5040046;28;70192;-33
2023/11/30 05:40:24;;;;;;;;;;;;;;;32.20;61.41;100836.03;5031919;28;66584;-33
2023/11/30 05:42:54;;;;;;;;;;;;;;;32.22;61.46;100825.78;5039460;28;70461;-34
2023/11/30 05:45:24;;;;;;;;;;;;;;;32.23;61.41;100817.41;5039565;28;66863;-32
2023/11/30 05:47:54;;;;;;;;;;;;;;;32.26;61.19;100818.81;5037799;28;70569;-34
2023/11/30 05:50:24;;;;;;;;;;;;;;;32.28;61.40;100808.56;5037068;28;66596;-34
2023/11/30 05:52:54;;;;;;;;;;;;;;;32.29;60.99;100802.09;5040443;28;70813;-36
2023/11/30 05:55:23;;;;;;;;;;;;;;;32.30;61.05;100809.16;5036488;28;66816;-34
2023/11/30 05:57:54;;;;;;;;;;;;;;;32.32;60.94;100807.06;5030384;28;70227;-32
2023/11/30 06:00:25;;;;;;;;;;;;;;;32.35;60.93;100801.16;5040365;28;65667;-41
2023/11/30 06:02:54;;;;;;;;;;;;;;;32.36;60.98;100791.94;5037363;28;70458;-33
2023/11/30 06:05:24;;;;;;;;;;;;;;;32.39;60.77;100796.09;5039700;28;65862;-34
2023/11/30 06:07:53;;;;;;;;;;;;;;;32.40;60.74;100782.28;5038995;28;69518;-34
2023/11/30 06:10:25;;;;;;;;;;;;;;;32.41;60.73;100789.38;5038353;28;65458;-33
2023/11/30 06:12:54;;;;;;;;;;;;;;;32.44;60.53;100788.88;5039174;28;70025;-33
2023/11/30 06:15:24;;;;;;;;;;;;;;;32.46;60.57;100784.09;5021507;28;66483;-33
2023/11/30 06:17:53;;;;;;;;;;;;;;;32.49;60.48;100786.34;5036985;28;69312;-33
2023/11/30 06:20:23;;;;;;;;;;;;;;;32.52;60.53;100789.66;5022109;28;66535;-33
2023/11/30 06:22:53;;;;;;;;;;;;;;;32.54;60.39;100782.09;5030228;28;70011;-33
2023/11/30 06:25:23;;;;;;;;;;;;;;;32.55;60.57;100778.31;5049466;28;65614;-35
2023/11/30 06:27:53;;;;;;;;;;;;;;;32.58;60.29;100777.84;5039053;28;70615;-34
2023/11/30 06:30:22;;;;;;;;;;;;;;;32.60;60.47;100770.31;5039051;28;65424;-35
2023/11/30 06:32:53;;;;;;;;;;;;;;;32.61;60.24;100772.78;5035960;28;70494;-34
2023/11/30 06:35:22;;;;;;;;;;;;;;;32.62;60.23;100771.69;5038302;28;66856;-34
2023/11/30 06:37:52;;;;;;;;;;;;;;;32.64;60.01;100771.47;5038732;28;70317;-35
2023/11/30 06:40:22;;;;;;;;;;;;;;;32.65;59.97;100762.25;5036559;28;66962;-33
2023/11/30 06:42:51;;;;;;;;;;;;;;;32.67;60.11;100754.72;5037989;28;70420;-34
2023/11/30 06:45:21;;;;;;;;;;;;;;;32.68;59.92;100751.78;5020331;28;65342;-34
2023/11/30 06:47:51;;;;;;;;;;;;;;;32.71;59.98;100750.47;5036707;28;70029;-34
2023/11/30 06:50:21;;;;;;;;;;;;;;;32.72;60.02;100741.25;5039064;28;67010;-34
2023/11/30 06:52:51;;;;;;;;;;;;;;;32.74;59.64;100728.28;5039400;28;69603;-32
2023/11/30 06:55:20;;;;;;;;;;;;;;;32.75;59.92;100729.91;5037067;28;66900;-33
2023/11/30 06:57:49;;;;;;;;;;;;;;;32.75;59.90;100721.75;5038472;28;70604;-34
2023/11/30 07:00:19;;;;;;;;;;;;;;;32.78;59.78;100723.19;5026700;28;66986;-32
2023/11/30 07:02:49;;;;;;;;;;;;;;;32.80;59.70;100724.59;5034852;28;70444;-34
2023/11/30 07:05:18;;;;;;;;;;;;;;;32.81;59.80;100717.28;5038295;28;66553;-33
2023/11/30 07:07:48;;;;;;;;;;;;;;;32.83;59.75;100721.41;5038355;28;69105;-33
2023/11/30 07:10:18;;;;;;;;;;;;;;;32.84;59.36;100720.34;5036979;28;66676;-33
2023/11/30 07:12:47;;;;;;;;;;;;;;;32.86;59.47;100715.50;5038908;28;69168;-33
2023/11/30 07:15:17;;;;;;;;;;;;;;;32.86;59.40;100715.50;5038914;28;66548;-33
2023/11/30 07:17:46;;;;;;;;;;;;;;;32.88;59.33;100718.81;5037350;28;70219;-32
2023/11/30 07:20:16;;;;;;;;;;;;;;;32.90;59.33;100710.41;5040756;28;66747;-34
2023/11/30 07:22:45;;;;;;;;;;;;;;;32.91;59.18;100712.91;5038087;28;70473;-34
2023/11/30 07:25:15;;;;;;;;;;;;;;;32.94;59.36;100717.84;5037177;28;66707;-33
2023/11/30 07:27:44;;;;;;;;;;;;;;;32.94;59.18;100715.13;5038534;28;70311;-35
2023/11/30 07:30:14;;;;;;;;;;;;;;;32.97;59.04;100715.72;5027498;28;66854;-33
2023/11/30 07:32:44;;;;;;;;;;;;;;;32.98;58.94;100711.94;5036907;28;70097;-32
2023/11/30 07:35:14;;;;;;;;;;;;;;;32.99;58.99;100717.16;5038167;28;66839;-33
2023/11/30 07:37:43;;;;;;;;;;;;;;;33.01;58.94;100711.47;5038942;28;70207;-33
2023/11/30 07:40:13;;;;;;;;;;;;;;;33.03;58.93;100706.66;5036072;28;66912;-33
2023/11/30 07:42:43;;;;;;;;;;;;;;;33.04;59.22;100706.41;5038455;28;70383;-32
2023/11/30 07:45:13;;;;;;;;;;;;;;;33.06;58.89;100706.16;5038831;28;66836;-32
2023/11/30 07:47:43;;;;;;;;;;;;;;;33.07;58.96;100710.53;5037835;28;69791;-34
2023/11/30 07:50:15;;;;;;;;;;;;;;;33.08;58.73;100702.16;5038494;28;66889;-33
2023/11/30 07:52:45;;;;;;;;;;;;;;;33.10;58.66;100701.91;5006325;28;70001;-33
2023/11/30 07:55:15;;;;;;;;;;;;;;;33.11;58.70;100701.66;5033197;28;66985;-33
2023/11/30 07:57:45;;;;;;;;;;;;;;;33.12;58.65;100695.16;5038968;28;70335;-35
2023/11/30 08:00:15;;;;;;;;;;;;;;;33.15;58.61;100699.28;5038828;28;65996;-33
2023/11/30 08:02:45;;;;;;;;;;;;;;;33.17;58.63;100694.44;5017842;28;69137;-33
2023/11/30 08:05:16;;;;;;;;;;;;;;;33.17;58.68;100691.72;5041261;28;66871;-33
2023/11/30 08:07:46;;;;;;;;;;;;;;;33.19;58.51;100691.50;5035489;28;70294;-34
2023/11/30 08:10:15;;;;;;;;;;;;;;;33.21;58.57;100695.63;5033629;28;66186;-33
2023/11/30 08:12:45;;;;;;;;;;;;;;;33.21;58.40;100692.91;5036599;28;70378;-33
2023/11/30 08:15:15;;;;;;;;;;;;;;;33.23;58.50;100688.03;5039844;28;66928;-33
2023/11/30 08:17:46;;;;;;;;;;;;;;;33.25;58.53;100690.53;5038419;28;70038;-33
2023/11/30 08:20:16;;;;;;;;;;;;;;;33.27;58.60;100689.22;5042441;28;66136;-34
2023/11/30 08:22:45;;;;;;;;;;;;;;;33.29;58.49;100687.09;5040446;28;70720;-34
2023/11/30 08:25:16;;;;;;;;;;;;;;;33.30;58.25;100683.28;5022094;28;65415;-35
2023/11/30 08:27:45;;;;;;;;;;;;;;;33.33;58.12;100692.88;5035020;28;69049;-32
2023/11/30 08:30:20;;;;;;;;;;;;;;;33.34;58.17;100689.88;5040453;28;66762;-33
2023/11/30 08:32:50;;;;;;;;;;;;;;;33.37;58.04;100683.13;5040052;28;70753;-33
2023/11/30 08:35:21;;;;;;;;;;;;;;;33.38;58.13;100682.91;5041343;28;66242;-33
2023/11/30 08:37:51;;;;;;;;;;;;;;;33.41;58.15;100689.75;5040080;28;70236;-34
2023/11/30 08:40:21;;;;;;;;;;;;;;;33.43;58.39;100692.22;5039925;28;66252;-33
2023/11/30 08:42:51;;;;;;;;;;;;;;;33.44;58.06;100707.50;5042008;28;70074;-34
2023/11/30 08:45:21;;;;;;;;;;;;;;;33.47;58.07;100709.72;5004261;28;66523;-33
2023/11/30 08:47:50;;;;;;;;;;;;;;;33.49;57.77;100715.72;5037128;28;71183;-35
2023/11/30 08:50:20;;;;;;;;;;;;;;;33.50;57.81;100720.94;5039979;28;66788;-32
2023/11/30 08:52:50;;;;;;;;;;;;;;;33.53;57.93;100730.53;5041272;28;70682;-34
2023/11/30 08:55:19;;;;;;;;;;;;;;;33.54;57.87;100726.72;5039641;28;66200;-34
2023/11/30 08:57:48;;;;;;;;;;;;;;;33.55;57.73;100725.69;5040432;28;70703;-33
2023/11/30 09:00:20;;;;;;;;;;;;;;;33.56;57.92;100717.25;5039772;28;66895;-35
2023/11/30 09:02:50;;;;;;;;;;;;;;;33.57;57.78;100715.38;5039013;28;70276;-33
2023/11/30 09:05:20;;;;;;;;;;;;;;;33.59;57.77;100713.25;5041100;28;65924;-33
2023/11/30 09:07:50;;;;;;;;;;;;;;;33.61;57.95;100711.09;5035090;28;71081;-35
2023/11/30 09:10:20;;;;;;;;;;;;;;;33.63;57.51;100708.13;5032507;28;66847;-34
2023/11/30 09:12:49;;;;;;;;;;;;;;;33.64;57.63;100713.34;5028981;28;69790;-33
2023/11/30 09:15:19;;;;;;;;;;;;;;;33.66;57.68;100707.66;5041045;28;66475;-33
2023/11/30 09:17:50;;;;;;;;;;;;;;;33.66;57.42;100708.50;5031247;28;70760;-33
2023/11/30 09:20:22;;;;;;;;;;;;;;;33.66;57.46;100716.66;5024063;28;66710;-33
2023/11/30 09:22:51;;;;;;;;;;;;;;;33.42;58.60;100717.78;5039708;28;69314;-34
2023/11/30 09:25:21;;;;;;;;;;;;;;;33.43;59.54;100708.53;5040203;28;66223;-34
2023/11/30 09:27:51;;;;;;;;;;;;;;;33.57;59.83;100712.66;5040552;28;70389;-33
2023/11/30 09:30:20;;;;;;;;;;;;;;;33.61;60.21;100700.22;5041755;28;66710;-35
2023/11/30 09:32:55;;;;;;;;;;;;;;;33.64;60.26;100705.19;5042025;28;70968;-34
2023/11/30 09:35:25;;;;;;;;;;;;;;;33.23;62.01;100700.81;5040864;28;66602;-34
2023/11/30 09:37:55;;;;;;;;;;;;;;;33.05;62.96;100702.63;5049121;28;70378;-34
2023/11/30 09:40:29;;;;;;;;;;;;;;;32.92;63.50;100698.22;5042328;28;66465;-34
2023/11/30 09:42:58;;;;;;;;;;;;;;;32.90;63.94;100699.53;5021503;28;69635;-35
2023/11/30 09:45:28;;;;;;;;;;;;;;;32.84;64.38;100706.75;5035479;28;65477;-33
2023/11/30 09:47:58;;;;;;;;;;;;;;;32.83;64.51;100705.09;5033877;28;69396;-34
2023/11/30 09:50:28;;;;;;;;;;;;;;;32.81;64.63;100703.69;5041197;28;66855;-35
2023/11/30 09:52:58;;;;;;;;;;;;;;;32.82;64.80;100708.03;5040568;28;69178;-34
2023/11/30 09:55:28;;;;;;;;;;;;;;;32.74;64.95;100711.97;5040130;28;67089;-34
2023/11/30 09:57:58;;;;;;;;;;;;;;;32.74;64.93;100716.59;5039552;28;69791;-34
2023/11/30 10:00:28;;;;;;;;;;;;;;;32.74;65.21;100711.97;5039902;28;67041;-34
2023/11/30 10:02:59;;;;;;;;;;;;;;;32.70;65.32;100716.22;5043833;28;71001;-34
2023/11/30 10:05:28;;;;;;;;;;;;;;;32.71;65.42;100717.88;5042209;28;66363;-34
2023/11/30 10:08:02;;;;;;;;;;;;;;;32.72;65.65;100724.97;5037303;28;70098;-35
2023/11/30 10:10:32;;;;;;;;;;;;;;;32.69;65.49;100726.25;5041439;28;66368;-33
2023/11/30 10:13:02;;;;;;;;;;;;;;;32.69;65.95;100725.44;5039695;28;69878;-34
2023/11/30 10:15:32;;;;;;;;;;;;;;;32.71;65.99;100739.59;5041820;28;67125;-34
2023/11/30 10:18:04;;;;;;;;;;;;;;;32.70;65.94;100743.38;5026840;28;70930;-33
2023/11/30 10:20:37;;;;;;;;;;;;;;;32.69;66.45;100758.03;5040636;28;66860;-33
2023/11/30 10:23:15;;;;;;;;;;;;;;;32.66;66.63;100758.50;5043189;28;70437;-33
2023/11/30 10:25:46;;;;;;;;;;;;;;;32.65;66.90;100768.53;5042114;28;66305;-34
2023/11/30 10:28:16;;;;;;;;;;;;;;;32.67;66.95;100765.56;5039255;28;69659;-34
2023/11/30 10:30:49;;;;;;;;;;;;;;;32.63;67.40;100775.28;5041191;28;66688;-34
2023/11/30 10:33:25;;;;;;;;;;;;;;;32.67;67.40;100781.88;5039669;28;70886;-34
2023/11/30 10:36:00;;;;;;;;;;;;;;;32.65;67.90;100778.56;5041698;28;67460;-33
2023/11/30 10:38:36;;;;;;;;;;;;;;;32.65;68.55;100783.97;5040003;28;70719;-33
2023/11/30 10:41:10;;;;;;;;;;;;;;;32.67;68.61;100781.88;5039466;28;66945;-33
2023/11/30 10:43:43;;;;;;;;;;;;;;;32.65;69.04;100789.41;5042065;28;70694;-33
2023/11/30 10:46:13;;;;;;;;;;;;;;;32.64;69.48;100790.50;5042801;28;66714;-33
2023/11/30 10:48:43;;;;;;;;;;;;;;;32.70;69.71;100794.97;5041061;28;70184;-34
2023/11/30 10:51:13;;;;;;;;;;;;;;;32.64;70.18;100798.63;5044107;28;65446;-33
2023/11/30 10:53:52;;;;;;;;;;;;;;;32.66;70.06;100796.53;5042522;28;69545;-34
2023/11/30 10:56:22;;;;;;;;;;;;;;;32.64;70.52;100785.06;5040941;28;66317;-34
2023/11/30 10:58:51;;;;;;;;;;;;;;;32.62;70.92;100792.59;5023227;28;70300;-33
2023/11/30 11:01:21;;;;;;;;;;;;;;;32.61;70.99;100794.50;5037737;28;66960;-33
2023/11/30 11:03:57;;;;;;;;;;;;;;;32.61;70.88;100809.97;5041827;28;70377;-34
2023/11/30 11:06:27;;;;;;;;;;;;;;;32.59;71.18;100807.47;5040684;28;66110;-34
2023/11/30 11:08:58;;;;;;;;;;;;;;;32.59;71.46;100802.03;5040119;28;70511;-33
2023/11/30 11:11:29;;;;;;;;;;;;;;;32.59;71.71;100809.38;5041655;28;66681;-33
2023/11/30 11:14:00;;;;;;;;;;;;;;;32.58;71.69;100815.88;5039850;28;70431;-35
2023/11/30 11:16:34;;;;;;;;;;;;;;;32.59;71.86;100814.81;5039709;28;66772;-34
2023/11/30 11:19:05;;;;;;;;;;;;;;;32.59;71.91;100812.09;5030327;28;69910;-34
2023/11/30 11:21:37;;;;;;;;;;;;;;;32.56;72.14;100807.13;5040941;28;66130;-34
2023/11/30 11:24:07;;;;;;;;;;;;;;;32.54;72.23;100814.66;5040537;28;70758;-37
2023/11/30 11:26:44;;;;;;;;;;;;;;;32.53;72.31;100818.44;5042266;28;65987;-35
2023/11/30 11:29:14;;;;;;;;;;;;;;;32.49;72.27;100816.22;5039137;28;70100;-35
2023/11/30 11:31:57;;;;;;;;;;;;;;;32.47;72.07;100821.03;5031519;28;66946;-33
2023/11/30 11:34:27;;;;;;;;;;;;;;;32.44;72.26;100824.19;5040317;28;70206;-34
2023/11/30 11:36:57;;;;;;;;;;;;;;;32.43;72.25;100830.69;5040601;28;66607;-34
2023/11/30 11:39:27;;;;;;;;;;;;;;;32.41;72.37;100827.38;5040436;28;70094;-33
2023/11/30 11:41:56;;;;;;;;;;;;;;;32.40;72.29;100833.88;5040819;28;66934;-34
2023/11/30 11:44:26;;;;;;;;;;;;;;;32.38;72.38;100837.88;5036189;28;69662;-34
2023/11/30 11:46:55;;;;;;;;;;;;;;;32.37;72.78;100830.78;5040642;28;66546;-34
2023/11/30 11:49:25;;;;;;;;;;;;;;;32.34;72.48;100840.19;5042345;28;69043;-33
2023/11/30 11:51:55;;;;;;;;;;;;;;;32.34;72.69;100850.25;5042866;28;67309;-34
2023/11/30 11:54:24;;;;;;;;;;;;;;;32.33;72.86;100846.69;5043415;28;69760;-34
2023/11/30 11:56:54;;;;;;;;;;;;;;;32.30;73.12;100852.59;5032327;28;66373;-34
2023/11/30 11:59:26;;;;;;;;;;;;;;;32.33;73.11;100868.41;5042635;28;70061;-34
2023/11/30 12:01:57;;;;;;;;;;;;;;;32.29;73.28;100859.09;5043875;28;66595;-33
2023/11/30 12:04:35;;;;;;;;;;;;;;;32.29;73.31;100859.09;5031161;28;69409;-34
2023/11/30 12:07:15;;;;;;;;;;;;;;;32.28;73.51;100866.38;5041302;28;65710;-33
2023/11/30 12:09:56;;;;;;;;;;;;;;;32.25;73.60;100869.56;5035145;28;69680;-34
2023/11/30 12:12:32;;;;;;;;;;;;;;;32.26;73.84;100878.53;5042162;28;67002;-34
2023/11/30 12:15:02;;;;;;;;;;;;;;;32.28;74.27;100871.00;5041913;28;69538;-35
2023/11/30 12:17:33;;;;;;;;;;;;;;;32.29;74.69;100878.09;5043647;28;66058;-34
2023/11/30 12:20:03;;;;;;;;;;;;;;;32.30;74.90;100885.16;5047090;28;70356;-34
2023/11/30 12:22:33;;;;;;;;;;;;;;;32.30;75.23;100885.16;5046101;28;66639;-33
2023/11/30 12:25:03;;;;;;;;;;;;;;;32.30;75.12;100898.75;5044073;28;69765;-34
2023/11/30 12:27:32;;;;;;;;;;;;;;;32.32;75.04;100910.22;5042343;28;66232;-33
2023/11/30 12:30:02;;;;;;;;;;;;;;;32.29;75.13;100910.66;5045676;28;70434;-34
2023/11/30 12:32:32;;;;;;;;;;;;;;;32.28;75.86;100919.84;5024636;28;66711;-33
2023/11/30 12:35:06;;;;;;;;;;;;;;;32.28;75.86;100922.56;5040011;28;70352;-34
2023/11/30 12:37:37;;;;;;;;;;;;;;;32.28;76.55;100930.72;5042087;28;66255;-33
2023/11/30 12:40:13;;;;;;;;;;;;;;;32.28;76.41;100931.53;5043653;28;70550;-33
2023/11/30 12:42:43;;;;;;;;;;;;;;;32.30;76.41;100934.03;5042416;28;66042;-33
2023/11/30 12:45:13;;;;;;;;;;;;;;;32.31;76.47;100940.28;5042795;28;69759;-34
2023/11/30 12:47:45;;;;;;;;;;;;;;;32.28;76.49;100947.00;5044022;28;66051;-33
2023/11/30 12:50:15;;;;;;;;;;;;;;;32.27;76.52;100946.16;5041633;28;70414;-34